createdAt,value
2023-02-17T00:00:14.128Z,89.50
2023-02-17T00:03:02.669Z,92.50
2023-02-17T00:05:30.891Z,96.75
2023-02-17T00:07:59.458Z,95.00
2023-02-17T00:10:27.649Z,93.00
2023-02-17T00:12:56.549Z,96.00
2023-02-17T00:15:24.769Z,98.33
2023-02-17T00:17:53.441Z,98.50
2023-02-17T00:20:21.679Z,94.75
2023-02-17T00:22:50.308Z,90.50
2023-02-17T00:25:18.629Z,94.75
2023-02-17T00:27:47.258Z,92.50
2023-02-17T00:30:15.539Z,94.67
2023-02-17T00:32:44.426Z,89.25
2023-02-17T00:35:14.394Z,95.50
2023-02-17T00:37:45.847Z,97.50
2023-02-17T00:40:15.153Z,95.00
2023-02-17T00:42:43.933Z,97.25
2023-02-17T00:45:12.277Z,99.75
2023-02-17T00:47:40.847Z,93.75
2023-02-17T00:50:11.347Z,93.50
2023-02-17T00:52:39.964Z,95.00
2023-02-17T00:55:09.322Z,97.00
2023-02-17T00:57:38.096Z,93.75
2023-02-17T01:00:06.995Z,100.00
2023-02-17T01:02:35.647Z,93.67
2023-02-17T01:05:04.275Z,91.00
2023-02-17T01:07:32.924Z,94.50
2023-02-17T01:10:01.338Z,95.50
2023-02-17T01:12:30.033Z,93.00
2023-02-17T01:14:59.708Z,95.25
2023-02-17T01:17:28.514Z,95.25
2023-02-17T01:19:58.176Z,99.00
2023-02-17T01:22:26.746Z,98.75
2023-02-17T01:24:56.643Z,95.00
2023-02-17T01:27:25.366Z,95.50
2023-02-17T01:29:56.109Z,97.25
2023-02-17T01:32:24.697Z,98.50
2023-02-17T01:34:52.941Z,95.75
2023-02-17T01:37:21.666Z,101.33
2023-02-17T01:39:49.886Z,98.50
2023-02-17T01:42:21.165Z,98.50
2023-02-17T01:45:17.872Z,100.00
2023-02-17T01:48:01.502Z,101.50
2023-02-17T01:50:33.980Z,97.67
2023-02-17T01:53:04.680Z,96.25
2023-02-17T01:55:33.873Z,99.75
2023-02-17T01:58:08.539Z,104.00
2023-02-17T02:00:37.551Z,96.33
2023-02-17T02:03:09.138Z,98.50
2023-02-17T02:05:39.168Z,97.75
2023-02-17T02:08:08.909Z,94.00
2023-02-17T02:10:37.391Z,97.75
2023-02-17T02:13:08.319Z,97.50
2023-02-17T02:16:07.572Z,98.25
2023-02-17T02:18:36.458Z,97.67
2023-02-17T02:21:21.879Z,100.00
2023-02-17T02:23:50.748Z,101.00
2023-02-17T02:26:43.602Z,96.50
2023-02-17T02:29:27.683Z,96.25
2023-02-17T02:32:27.974Z,99.00
2023-02-17T02:35:05.689Z,92.50
2023-02-17T02:37:43.067Z,98.75
2023-02-17T02:40:12.956Z,97.50
2023-02-17T02:42:41.957Z,101.50
2023-02-17T02:45:11.344Z,104.00
2023-02-17T02:47:52.322Z,100.75
2023-02-17T02:51:20.634Z,100.50
2023-02-17T02:54:24.257Z,101.50
2023-02-17T02:57:18.716Z,95.50
2023-02-17T03:00:06.556Z,98.25
2023-02-17T03:02:46.025Z,95.50
2023-02-17T03:05:25.043Z,101.67
2023-02-17T03:07:54.768Z,103.00
2023-02-17T03:10:23.205Z,98.50
2023-02-17T03:12:52.690Z,101.50
2023-02-17T03:15:28.666Z,103.00
2023-02-17T03:17:58.705Z,99.75
2023-02-17T03:20:30.697Z,103.67
2023-02-17T03:23:00.042Z,94.50
2023-02-17T03:25:29.863Z,97.00
2023-02-17T03:27:58.483Z,102.00
2023-02-17T03:30:26.924Z,99.25
2023-02-17T03:32:55.693Z,96.50
2023-02-17T03:35:23.959Z,100.00
2023-02-17T03:37:52.655Z,98.25
2023-02-17T03:40:20.901Z,102.25
2023-02-17T03:42:49.600Z,100.25
2023-02-17T03:45:17.981Z,102.50
2023-02-17T03:47:46.644Z,93.50
2023-02-17T03:50:15.033Z,99.00
2023-02-17T03:52:43.602Z,97.25
2023-02-17T03:55:11.884Z,101.25
2023-02-17T03:57:40.760Z,98.75
2023-02-17T04:00:09.876Z,97.50
2023-02-17T04:02:44.429Z,102.75
2023-02-17T04:05:12.831Z,100.50
2023-02-17T04:07:41.659Z,100.00
2023-02-17T04:10:10.272Z,100.50
2023-02-17T04:12:38.869Z,98.00
2023-02-17T04:15:07.437Z,98.67
2023-02-17T04:17:39.045Z,99.00
2023-02-17T04:20:08.085Z,102.00
2023-02-17T04:22:36.668Z,101.75
2023-02-17T04:25:05.079Z,99.50
2023-02-17T04:27:33.662Z,99.25
2023-02-17T04:30:02.055Z,103.00
2023-02-17T04:32:30.767Z,96.75
2023-02-17T04:34:58.971Z,99.00
2023-02-17T04:37:27.560Z,97.50
2023-02-17T04:39:55.889Z,99.00
2023-02-17T04:42:24.679Z,94.50
2023-02-17T04:44:53.086Z,95.00
2023-02-17T04:47:21.868Z,92.00
2023-02-17T04:49:50.192Z,99.00
2023-02-17T04:52:18.948Z,96.25
2023-02-17T04:54:47.418Z,99.50
2023-02-17T04:57:16.261Z,93.00
2023-02-17T04:59:45.229Z,100.50
2023-02-17T05:02:13.889Z,97.50
2023-02-17T05:04:43.933Z,95.25
2023-02-17T05:07:13.706Z,96.25
2023-02-17T05:09:42.149Z,93.50
2023-02-17T05:12:10.818Z,93.33
2023-02-17T05:14:39.187Z,87.00
2023-02-17T05:17:08.079Z,87.25
2023-02-17T05:19:36.568Z,88.50
2023-02-17T05:22:05.316Z,88.00
2023-02-17T05:24:34.020Z,87.25
2023-02-17T05:27:03.081Z,83.50
2023-02-17T05:29:31.418Z,79.00
2023-02-17T05:32:00.133Z,80.25
2023-02-17T05:34:28.569Z,75.75
2023-02-17T05:36:57.328Z,76.50
2023-02-17T05:39:25.749Z,71.25
2023-02-17T05:41:56.598Z,72.25
2023-02-17T05:44:25.061Z,63.50
2023-02-17T05:46:53.821Z,68.25
2023-02-17T05:49:22.182Z,65.00
2023-02-17T05:51:51.317Z,62.33
2023-02-17T05:54:19.784Z,62.00
2023-02-17T05:56:48.511Z,62.25
2023-02-17T05:59:17.131Z,60.25
2023-02-17T06:01:45.820Z,61.00
2023-02-17T06:04:14.259Z,58.00
2023-02-17T06:06:43.053Z,60.75
2023-02-17T06:09:11.571Z,55.00
2023-02-17T06:11:40.363Z,55.50
2023-02-17T06:14:08.814Z,55.25
2023-02-17T06:16:37.732Z,53.25
2023-02-17T06:19:06.150Z,54.50
2023-02-17T06:21:35.121Z,54.25
2023-02-17T06:24:03.642Z,56.00
2023-02-17T06:26:32.481Z,53.75
2023-02-17T06:29:00.861Z,49.50
2023-02-17T06:31:30.300Z,49.25
2023-02-17T06:33:58.698Z,52.25
2023-02-17T06:36:27.488Z,50.00
2023-02-17T06:38:55.878Z,54.00
2023-02-17T06:41:24.527Z,49.00
2023-02-17T06:43:52.890Z,52.75
2023-02-17T06:46:21.667Z,49.00
2023-02-17T06:48:50.058Z,50.25
2023-02-17T06:51:18.768Z,48.25
2023-02-17T06:53:47.239Z,46.00
2023-02-17T06:56:16.125Z,50.00
2023-02-17T06:58:44.614Z,46.25
2023-02-17T07:01:19.406Z,48.33
2023-02-17T07:03:48.002Z,47.00
2023-02-17T07:06:16.720Z,46.50
2023-02-17T07:08:45.165Z,49.00
2023-02-17T07:11:14.892Z,48.00
2023-02-17T07:13:44.154Z,47.00
2023-02-17T07:16:14.607Z,42.75
2023-02-17T07:18:43.099Z,46.00
2023-02-17T07:21:12.096Z,48.25
2023-02-17T07:23:40.542Z,43.50
2023-02-17T07:26:11.731Z,46.00
2023-02-17T07:28:41.104Z,44.50
2023-02-17T07:31:16.558Z,45.33
2023-02-17T07:33:48.585Z,43.25
2023-02-17T07:36:18.220Z,42.00
2023-02-17T07:38:46.631Z,44.00
2023-02-17T07:41:18.076Z,43.00
2023-02-17T07:43:47.978Z,43.25
2023-02-17T07:46:18.861Z,46.00
2023-02-17T07:48:47.677Z,43.25
2023-02-17T07:51:19.936Z,45.50
2023-02-17T07:53:50.256Z,45.33
2023-02-17T07:56:21.785Z,44.00
2023-02-17T07:58:50.519Z,55.00
2023-02-17T08:01:22.171Z,49.00
2023-02-17T08:03:51.818Z,48.50
2023-02-17T08:06:24.585Z,49.50
2023-02-17T08:09:12.491Z,51.00
2023-02-17T08:12:01.117Z,50.00
2023-02-17T08:14:32.192Z,55.25
2023-02-17T08:17:01.023Z,57.00
2023-02-17T08:19:39.708Z,55.00
2023-02-17T08:22:16.171Z,54.00
2023-02-17T08:24:44.690Z,55.50
2023-02-17T08:27:15.546Z,57.00
2023-02-17T08:29:44.800Z,60.25
2023-02-17T08:32:15.822Z,59.00
2023-02-17T08:34:44.253Z,58.00
2023-02-17T08:37:13.205Z,58.75
2023-02-17T08:39:41.763Z,59.50
2023-02-17T08:42:11.805Z,62.50
2023-02-17T08:44:40.279Z,61.75
2023-02-17T08:47:10.800Z,62.50
2023-02-17T08:49:39.046Z,66.00
2023-02-17T08:52:07.829Z,67.00
2023-02-17T08:54:38.044Z,68.25
2023-02-17T08:57:06.700Z,71.50
2023-02-17T08:59:34.942Z,70.50
2023-02-17T09:02:04.113Z,72.67
2023-02-17T09:04:32.415Z,70.75
2023-02-17T09:07:01.432Z,73.00
2023-02-17T09:09:29.979Z,71.67
2023-02-17T09:11:59.238Z,75.00
2023-02-17T09:14:27.966Z,78.00
2023-02-17T09:16:57.122Z,77.00
2023-02-17T09:19:26.342Z,75.75
2023-02-17T09:21:56.036Z,77.33
2023-02-17T09:24:25.601Z,80.25
2023-02-17T09:26:54.428Z,80.50
2023-02-17T09:29:22.653Z,81.00
2023-02-17T09:31:51.310Z,80.00
2023-02-17T09:34:19.605Z,81.25
2023-02-17T09:36:50.374Z,82.00
2023-02-17T09:39:18.926Z,77.33
2023-02-17T09:41:52.495Z,83.00
2023-02-17T09:44:23.489Z,88.00
2023-02-17T09:47:03.126Z,83.75
2023-02-17T09:49:45.218Z,89.00
2023-02-17T09:52:31.884Z,84.00
2023-02-17T09:55:04.438Z,86.50
2023-02-17T09:57:37.846Z,85.00
2023-02-17T10:00:18.143Z,93.00
2023-02-17T10:03:17.517Z,87.50
2023-02-17T10:06:06.583Z,86.25
2023-02-17T10:08:55.478Z,93.50
2023-02-17T10:11:40.306Z,90.75
2023-02-17T10:14:22.170Z,86.25
2023-02-17T10:16:57.705Z,90.75
2023-02-17T10:19:31.138Z,91.75
2023-02-17T10:22:07.626Z,88.00
2023-02-17T10:24:36.283Z,90.25
2023-02-17T10:27:38.273Z,97.00
2023-02-17T10:30:25.501Z,96.25
2023-02-17T10:33:14.882Z,88.50
2023-02-17T10:36:14.065Z,96.25
2023-02-17T10:38:51.122Z,94.67
2023-02-17T10:41:33.768Z,96.50
2023-02-17T10:44:03.728Z,95.50
2023-02-17T10:46:32.799Z,99.25
2023-02-17T10:49:01.735Z,100.50
2023-02-17T10:51:31.482Z,99.25
2023-02-17T10:54:22.578Z,101.00
2023-02-17T10:56:54.248Z,97.50
2023-02-17T10:59:40.870Z,98.75
2023-02-17T11:02:31.250Z,93.50
2023-02-17T11:05:00.246Z,103.50
2023-02-17T11:07:42.180Z,98.00
2023-02-17T11:10:31.714Z,98.50
2023-02-17T11:13:02.751Z,101.67
2023-02-17T11:15:44.760Z,96.50
2023-02-17T11:18:26.088Z,97.00
2023-02-17T11:21:06.139Z,94.50
2023-02-17T11:23:35.576Z,100.67
2023-02-17T11:26:18.355Z,94.00
2023-02-17T11:28:46.859Z,100.33
2023-02-17T11:31:30.163Z,96.33
2023-02-17T11:33:58.790Z,96.50
2023-02-17T11:36:29.673Z,94.25
2023-02-17T11:38:59.862Z,95.00
2023-02-17T11:41:28.102Z,94.00
2023-02-17T11:44:00.374Z,94.25
2023-02-17T11:46:41.440Z,95.25
2023-02-17T11:49:19.087Z,95.75
2023-02-17T11:51:53.737Z,91.33
2023-02-17T11:54:31.791Z,87.50
2023-02-17T11:57:26.177Z,95.50
2023-02-17T12:00:28.557Z,100.75
2023-02-17T12:03:18.652Z,102.00
2023-02-17T12:06:07.198Z,96.25
2023-02-17T12:09:23.174Z,98.25
2023-02-17T12:12:25.724Z,98.00
2023-02-17T12:14:58.876Z,100.00
2023-02-17T12:17:29.985Z,97.50
2023-02-17T12:20:09.645Z,100.25
2023-02-17T12:23:05.248Z,103.25
2023-02-17T12:25:45.191Z,99.50
2023-02-17T12:28:35.418Z,101.50
2023-02-17T12:31:37.087Z,97.00
2023-02-17T12:34:26.184Z,95.50
2023-02-17T12:36:56.396Z,102.75
2023-02-17T12:39:31.425Z,97.75
2023-02-17T12:42:01.647Z,93.50
2023-02-17T12:44:39.189Z,98.33
2023-02-17T12:47:15.097Z,91.50
2023-02-17T12:49:53.860Z,92.25
2023-02-17T12:52:39.931Z,97.67
2023-02-17T12:55:20.921Z,89.00
2023-02-17T12:58:00.822Z,87.50
2023-02-17T13:00:47.018Z,91.00
2023-02-17T13:03:16.957Z,86.25
2023-02-17T13:06:03.516Z,86.50
2023-02-17T13:08:39.435Z,83.00
2023-02-17T13:11:14.573Z,84.75
2023-02-17T13:13:43.225Z,81.75
2023-02-17T13:16:14.316Z,79.00
2023-02-17T13:18:46.009Z,77.25
2023-02-17T13:21:25.512Z,75.00
2023-02-17T13:24:01.493Z,76.00
2023-02-17T13:26:33.593Z,70.67
2023-02-17T13:29:21.756Z,72.00
2023-02-17T13:32:02.638Z,67.50
2023-02-17T13:34:37.864Z,71.33
2023-02-17T13:37:28.522Z,69.00
2023-02-17T13:39:57.086Z,66.50
2023-02-17T13:42:37.429Z,69.00
2023-02-17T13:45:29.847Z,66.33
2023-02-17T13:48:01.241Z,64.00
2023-02-17T13:50:34.307Z,63.25
2023-02-17T13:53:20.780Z,63.00
2023-02-17T13:55:49.508Z,55.25
2023-02-17T13:58:28.255Z,53.00
2023-02-17T14:00:58.057Z,51.25
2023-02-17T14:03:36.307Z,48.00
2023-02-17T14:06:05.277Z,37.00
2023-02-17T14:08:40.375Z,32.00
2023-02-17T14:11:14.342Z,30.25
2023-02-17T14:13:46.110Z,28.25
2023-02-17T14:16:36.526Z,27.00
2023-02-17T14:19:14.525Z,26.00
2023-02-17T14:21:56.798Z,27.25
2023-02-17T14:24:35.966Z,27.75
2023-02-17T14:27:14.393Z,27.25
2023-02-17T14:29:48.277Z,26.50
2023-02-17T14:32:32.767Z,28.25
2023-02-17T14:35:13.922Z,30.25
2023-02-17T14:37:43.032Z,30.25
2023-02-17T14:40:21.089Z,29.25
2023-02-17T14:42:50.070Z,32.00
2023-02-17T14:45:19.724Z,31.00
2023-02-17T14:47:48.409Z,32.50
2023-02-17T14:50:17.737Z,35.50
2023-02-17T14:52:48.650Z,35.50
2023-02-17T14:55:24.484Z,34.25
2023-02-17T14:57:52.971Z,35.75
2023-02-17T15:00:22.151Z,36.00
2023-02-17T15:02:52.001Z,35.00
2023-02-17T15:05:21.343Z,34.50
2023-02-17T15:07:50.253Z,37.00
2023-02-17T15:10:30.518Z,36.00
2023-02-17T15:12:59.061Z,35.50
2023-02-17T15:15:27.920Z,36.00
2023-02-17T15:17:56.423Z,35.00
2023-02-17T15:20:25.301Z,35.25
2023-02-17T15:22:55.371Z,35.25
2023-02-17T15:25:24.571Z,37.00
2023-02-17T15:27:53.251Z,37.50
2023-02-17T15:30:23.091Z,39.00
2023-02-17T15:32:51.575Z,36.75
2023-02-17T15:35:23.517Z,35.25
2023-02-17T15:37:52.876Z,37.50
2023-02-17T15:40:24.667Z,36.25
2023-02-17T15:43:01.339Z,34.00
2023-02-17T15:45:31.256Z,36.00
2023-02-17T15:48:05.551Z,33.67
2023-02-17T15:50:34.500Z,35.00
2023-02-17T15:53:03.526Z,33.25
2023-02-17T15:55:33.962Z,34.50
2023-02-17T15:58:04.391Z,35.00
2023-02-17T16:00:35.539Z,34.00
2023-02-17T16:03:04.881Z,32.00
2023-02-17T16:05:33.885Z,34.25
2023-02-17T16:08:02.387Z,31.00
2023-02-17T16:10:32.797Z,34.00
2023-02-17T16:13:02.101Z,32.00
2023-02-17T16:15:33.100Z,34.00
2023-02-17T16:18:01.676Z,31.50
2023-02-17T16:20:35.334Z,32.33
2023-02-17T16:23:03.932Z,33.00
2023-02-17T16:25:32.789Z,32.50
2023-02-17T16:28:01.426Z,32.00
2023-02-17T16:30:32.024Z,33.00
2023-02-17T16:33:01.426Z,30.00
2023-02-17T16:35:32.505Z,32.00
2023-02-17T16:38:06.485Z,29.00
2023-02-17T16:40:37.234Z,30.75
2023-02-17T16:43:05.628Z,31.00
2023-02-17T16:45:34.616Z,28.00
2023-02-17T16:48:02.998Z,27.75
2023-02-17T16:50:34.736Z,29.75
2023-02-17T16:53:09.079Z,29.75
2023-02-17T16:55:37.766Z,29.00
2023-02-17T16:58:14.758Z,27.00
2023-02-17T17:00:44.008Z,28.25
2023-02-17T17:03:12.473Z,28.00
2023-02-17T17:05:43.066Z,30.25
2023-02-17T17:08:19.442Z,27.00
2023-02-17T17:10:51.196Z,28.75
2023-02-17T17:13:19.545Z,28.75
2023-02-17T17:15:48.410Z,27.00
2023-02-17T17:18:21.920Z,27.25
2023-02-17T17:20:50.954Z,29.00
2023-02-17T17:23:19.401Z,26.00
2023-02-17T17:25:48.854Z,29.25
2023-02-17T17:28:19.315Z,27.33
2023-02-17T17:30:48.770Z,29.25
2023-02-17T17:33:17.456Z,28.00
2023-02-17T17:35:46.213Z,26.50
2023-02-17T17:38:19.725Z,30.75
2023-02-17T17:40:57.134Z,28.00
2023-02-17T17:43:25.520Z,30.00
2023-02-17T17:45:55.130Z,30.00
2023-02-17T17:48:23.482Z,30.00
2023-02-17T17:50:52.227Z,31.00
2023-02-17T17:53:20.579Z,31.00
2023-02-17T17:55:49.188Z,30.25
2023-02-17T17:58:17.668Z,32.25
2023-02-17T18:00:46.436Z,34.00
2023-02-17T18:03:14.835Z,33.33
2023-02-17T18:05:43.588Z,36.75
2023-02-17T18:08:13.388Z,36.50
2023-02-17T18:10:42.953Z,39.00
2023-02-17T18:13:12.873Z,35.33
2023-02-17T18:15:42.345Z,35.50
2023-02-17T18:18:12.346Z,37.50
2023-02-17T18:20:41.117Z,37.00
2023-02-17T18:23:09.428Z,40.00
2023-02-17T18:25:38.438Z,40.25
2023-02-17T18:28:06.806Z,41.33
2023-02-17T18:30:35.791Z,42.50
2023-02-17T18:33:04.138Z,47.25
2023-02-17T18:35:38.816Z,47.25
2023-02-17T18:38:07.074Z,50.25
2023-02-17T18:40:39.566Z,49.33
2023-02-17T18:43:08.584Z,51.75
2023-02-17T18:45:37.531Z,51.00
2023-02-17T18:48:06.122Z,54.33
2023-02-17T18:50:35.225Z,54.00
2023-02-17T18:53:05.375Z,55.50
2023-02-17T18:55:37.771Z,51.75
2023-02-17T18:58:06.108Z,55.00
2023-02-17T19:00:34.910Z,56.00
2023-02-17T19:03:03.173Z,57.00
2023-02-17T19:05:31.887Z,57.33
2023-02-17T19:08:00.143Z,58.33
2023-02-17T19:10:28.787Z,60.50
2023-02-17T19:12:57.040Z,63.25
2023-02-17T19:15:27.180Z,60.00
2023-02-17T19:17:57.781Z,63.50
2023-02-17T19:20:27.835Z,58.75
2023-02-17T19:22:56.310Z,64.25
2023-02-17T19:25:25.498Z,66.50
2023-02-17T19:27:53.904Z,60.75
2023-02-17T19:30:22.674Z,63.00
2023-02-17T19:32:51.030Z,66.25
2023-02-17T19:35:19.597Z,62.50
2023-02-17T19:37:47.869Z,63.00
2023-02-17T19:40:16.601Z,66.25
2023-02-17T19:42:44.882Z,67.25
2023-02-17T19:45:13.552Z,67.00
2023-02-17T19:47:41.844Z,69.00
2023-02-17T19:50:10.771Z,69.00
2023-02-17T19:52:39.102Z,69.25
2023-02-17T19:55:09.992Z,67.50
2023-02-17T19:57:38.419Z,65.50
2023-02-17T20:00:08.426Z,71.50
2023-02-17T20:02:37.060Z,75.25
2023-02-17T20:05:06.248Z,65.33
2023-02-17T20:07:34.785Z,69.25
2023-02-17T20:10:06.072Z,71.00
2023-02-17T20:12:34.375Z,70.50
2023-02-17T20:15:03.006Z,71.25
2023-02-17T20:17:31.564Z,72.00
2023-02-17T20:20:00.204Z,71.33
2023-02-17T20:22:28.646Z,73.00
2023-02-17T20:24:58.225Z,73.50
2023-02-17T20:27:26.565Z,72.75
2023-02-17T20:29:55.467Z,73.50
2023-02-17T20:32:23.918Z,72.50
2023-02-17T20:34:52.843Z,78.75
2023-02-17T20:37:21.186Z,71.00
2023-02-17T20:39:49.820Z,77.50
2023-02-17T20:42:18.148Z,76.50
2023-02-17T20:44:50.684Z,80.00
2023-02-17T20:47:19.029Z,78.00
2023-02-17T20:49:47.826Z,81.75
2023-02-17T20:52:16.040Z,76.50
2023-02-17T20:54:45.197Z,83.00
2023-02-17T20:57:15.359Z,82.75
2023-02-17T20:59:44.006Z,78.25
2023-02-17T21:02:12.216Z,80.00
2023-02-17T21:04:41.149Z,83.50
2023-02-17T21:07:10.928Z,81.50
2023-02-17T21:09:39.599Z,86.25
2023-02-17T21:12:08.118Z,83.75
2023-02-17T21:14:36.787Z,86.33
2023-02-17T21:17:04.997Z,87.50
2023-02-17T21:19:33.559Z,85.25
2023-02-17T21:22:01.716Z,85.00
2023-02-17T21:24:30.217Z,88.50
2023-02-17T21:26:58.436Z,87.50
2023-02-17T21:29:27.024Z,88.25
2023-02-17T21:31:55.178Z,90.25
2023-02-17T21:34:23.983Z,86.50
2023-02-17T21:36:52.228Z,87.75
2023-02-17T21:39:21.645Z,87.00
2023-02-17T21:41:50.483Z,87.50
2023-02-17T21:44:37.312Z,80.75
2023-02-17T21:47:05.554Z,86.00
2023-02-17T21:49:34.044Z,82.67
2023-02-17T21:52:02.202Z,89.00
2023-02-17T21:54:30.717Z,88.50
2023-02-17T21:56:58.986Z,86.25
2023-02-17T21:59:27.663Z,85.00
2023-02-17T22:01:55.772Z,89.00
2023-02-17T22:04:26.662Z,84.00
2023-02-17T22:06:54.773Z,87.67
2023-02-17T22:09:23.329Z,88.33
2023-02-17T22:11:51.369Z,89.00
2023-02-17T22:14:21.444Z,91.00
2023-02-17T22:16:50.032Z,90.75
2023-02-17T22:19:21.172Z,89.25
2023-02-17T22:21:51.103Z,86.50
2023-02-17T22:24:22.869Z,88.33
2023-02-17T22:26:51.128Z,87.50
2023-02-17T22:29:19.544Z,88.33
2023-02-17T22:31:48.139Z,93.00
2023-02-17T22:34:16.633Z,93.50
2023-02-17T22:36:44.806Z,89.25
2023-02-17T22:39:13.278Z,94.25
2023-02-17T22:41:41.516Z,91.33
2023-02-17T22:44:10.023Z,83.50
2023-02-17T22:46:38.619Z,94.25
2023-02-17T22:49:07.271Z,93.25
2023-02-17T22:51:39.353Z,89.75
2023-02-17T22:54:08.498Z,90.25
2023-02-17T22:56:36.668Z,91.00
2023-02-17T22:59:05.942Z,96.25
2023-02-17T23:01:35.539Z,97.00
2023-02-17T23:04:06.414Z,95.50
2023-02-17T23:06:37.488Z,92.25
2023-02-17T23:09:08.742Z,93.50
2023-02-17T23:11:51.053Z,97.00
2023-02-17T23:14:23.995Z,93.33
2023-02-17T23:16:53.643Z,90.33
2023-02-17T23:19:23.515Z,99.00
2023-02-17T23:21:55.076Z,91.50
2023-02-17T23:24:25.167Z,88.50
2023-02-17T23:26:55.041Z,92.75
2023-02-17T23:29:23.996Z,90.25
2023-02-17T23:31:52.676Z,88.25
2023-02-17T23:34:21.124Z,83.75
2023-02-17T23:36:49.476Z,86.50
2023-02-17T23:39:17.935Z,87.50
2023-02-17T23:41:46.276Z,87.25
2023-02-17T23:44:15.356Z,82.50
2023-02-17T23:46:44.674Z,83.00
2023-02-17T23:49:17.732Z,81.00
2023-02-17T23:51:47.821Z,80.25
2023-02-17T23:54:16.376Z,82.00
2023-02-17T23:56:45.638Z,77.50
2023-02-17T23:59:14.169Z,74.50
